Japi, Brazil
Current Conditions -  °F | °C
As of 11:15 PM on Friday 28 Nov 2014 (Local Time) from SBKG Reporting Station
Broken Clouds Broken Clouds  
Wind Chill: 72°   Ceiling: 1500
Heat Index: 72°   Visibility: 6mi
Dew Point: 70°   Wind: 12mph
Humidity: 94%   Direction: 100°E
Pressure: 29.97"   Gusts: NA
Location:  6.45°S, 35.93°W
Report Text: SBKG 290215Z 10010KT 9999 SCT008 BKN015 22/21 Q1015
Loading
Personal Weather Stations






























Interactive Weather Map New forecast layout! Learn more

10-Day Weather Forecast

Advertisements
Track Severe Weather on mobile